Time;durP1;ratioP1;P1;durP2;ratioP2;P2;SDS_P1;SDS_P2;PMS_P1;PMS_P2;Temp;Humidity;BMP_temperature;BMP_pressure;BME280_temperature;BME280_humidity;BME280_pressure;Samples;Min_cycle;Max_cycle;Signal;HPM_P1;HPM_P2
2023/10/15 00:01:12;;;;;;;0.40;0.40;;;9.30;99.90;;;;;;5051226;28;20255;-61
2023/10/15 00:03:38;;;;;;;0.70;0.70;;;9.20;99.90;;;;;;5051054;28;20204;-61
2023/10/15 00:06:04;;;;;;;0.60;0.60;;;9.20;99.90;;;;;;5051416;28;20197;-62
2023/10/15 00:08:30;;;;;;;0.40;0.40;;;9.10;99.90;;;;;;5051354;28;20268;-62
2023/10/15 00:10:56;;;;;;;0.55;0.55;;;9.30;99.90;;;;;;5051280;28;20190;-61
2023/10/15 00:13:22;;;;;;;3.60;0.70;;;9.30;99.90;;;;;;5051295;28;20647;-62
2023/10/15 00:15:47;;;;;;;1.07;0.73;;;9.30;99.90;;;;;;5051749;28;20174;-61
2023/10/15 00:18:13;;;;;;;0.77;0.77;;;9.30;99.90;;;;;;5051284;28;20178;-61
2023/10/15 00:20:40;;;;;;;0.40;0.40;;;9.20;99.90;;;;;;5051213;28;20519;-61
2023/10/15 00:23:06;;;;;;;0.40;0.40;;;9.20;99.90;;;;;;5051292;28;20546;-61
2023/10/15 00:25:47;;;;;;;1.53;1.43;;;9.20;99.90;;;;;;5051198;28;20177;-62
2023/10/15 00:28:12;;;;;;;1.13;0.75;;;9.20;99.90;;;;;;5049528;28;20419;-61
2023/10/15 00:30:39;;;;;;;1.50;0.90;;;9.30;99.90;;;;;;5050987;28;20548;-61
2023/10/15 00:33:11;;;;;;;0.50;0.50;;;9.40;99.90;;;;;;5051013;28;20179;-61
2023/10/15 00:35:37;;;;;;;0.50;0.50;;;9.40;99.90;;;;;;5051011;28;20255;-62
2023/10/15 00:38:16;;;;;;;0.37;0.37;;;9.30;99.90;;;;;;5050887;28;20174;-61
2023/10/15 00:40:45;;;;;;;0.95;0.80;;;9.30;99.90;;;;;;5051004;28;20420;-61
2023/10/15 00:43:13;;;;;;;0.93;0.80;;;9.20;99.90;;;;;;5050831;28;20688;-61
2023/10/15 00:45:45;;;;;;;0.40;0.40;;;9.20;99.90;;;;;;5051317;28;20563;-60
2023/10/15 00:48:24;;;;;;;0.50;0.50;;;9.20;99.90;;;;;;5051215;28;20185;-60
2023/10/15 00:50:51;;;;;;;0.32;0.32;;;9.30;99.90;;;;;;5051159;28;20193;-61
2023/10/15 00:53:24;;;;;;;0.40;0.40;;;9.30;99.90;;;;;;5050805;28;20222;-61
2023/10/15 00:56:10;;;;;;;0.40;0.40;;;9.20;99.90;;;;;;5051121;28;20546;-62
2023/10/15 00:58:43;;;;;;;0.32;0.32;;;9.10;99.90;;;;;;5050696;28;20178;-61
2023/10/15 01:03:49;;;;;;;0.60;0.60;;;9.10;99.90;;;;;;5050970;28;20689;-61
2023/10/15 01:06:57;;;;;;;0.70;0.70;;;9.10;99.90;;;;;;5050748;28;20174;-62
2023/10/15 01:09:32;;;;;;;0.30;0.30;;;9.00;99.90;;;;;;5051409;28;20541;-61
2023/10/15 01:12:19;;;;;;;0.60;0.60;;;9.00;99.90;;;;;;5050691;28;20196;-61
2023/10/15 01:14:45;;;;;;;0.30;0.30;;;8.90;99.90;;;;;;5051609;28;20173;-62
2023/10/15 01:17:11;;;;;;;0.70;0.50;;;8.80;99.90;;;;;;5053989;28;20190;-62
2023/10/15 01:19:36;;;;;;;0.40;0.40;;;8.80;99.90;;;;;;5054389;28;20174;-61
2023/10/15 01:22:07;;;;;;;0.47;0.47;;;8.90;99.90;;;;;;5054181;28;20662;-61
2023/10/15 01:24:36;;;;;;;1.08;0.50;;;9.00;99.90;;;;;;5054585;28;20182;-61
2023/10/15 01:27:10;;;;;;;0.77;0.77;;;9.00;99.90;;;;;;5054013;28;20185;-62
2023/10/15 01:29:42;;;;;;;0.40;0.40;;;8.80;99.90;;;;;;5054065;28;20178;-61
2023/10/15 01:34:40;;;;;;;0.50;0.50;;;8.70;99.90;;;;;;5054584;28;20221;-62
2023/10/15 01:37:15;;;;;;;0.40;0.40;;;8.70;99.90;;;;;;5052793;28;20203;-61
2023/10/15 01:39:45;;;;;;;0.40;0.40;;;8.80;99.90;;;;;;5053872;28;20776;-61
2023/10/15 01:42:31;;;;;;;1.70;0.75;;;8.90;99.90;;;;;;5053868;28;20212;-61
2023/10/15 01:48:05;;;;;;;0.55;0.55;;;9.00;99.90;;;;;;5054017;28;20181;-61
2023/10/15 01:50:34;;;;;;;0.65;0.65;;;9.00;99.90;;;;;;5053625;28;20190;-62
2023/10/15 01:53:05;;;;;;;0.60;0.60;;;9.00;99.90;;;;;;5053357;28;20725;-61
2023/10/15 01:55:35;;;;;;;0.40;0.40;;;9.10;99.90;;;;;;5053709;28;20253;-61
2023/10/15 01:58:04;;;;;;;0.77;0.65;;;9.20;99.90;;;;;;5053032;28;20181;-61
2023/10/15 02:03:02;;;;;;;0.80;0.80;;;9.30;99.90;;;;;;5053428;28;20582;-61
2023/10/15 02:05:41;;;;;;;0.40;0.40;;;9.20;99.90;;;;;;5053365;28;20174;-62
2023/10/15 02:08:25;;;;;;;0.60;0.60;;;9.30;99.90;;;;;;5053117;28;20180;-61
2023/10/15 02:10:52;;;;;;;0.52;0.52;;;9.30;99.90;;;;;;5053804;28;20227;-62
2023/10/15 02:13:19;;;;;;;0.40;0.40;;;9.20;99.90;;;;;;5053101;28;20191;-61
2023/10/15 02:15:46;;;;;;;1.40;1.13;;;9.20;99.90;;;;;;5053203;28;20182;-61
2023/10/15 02:18:14;;;;;;;1.02;0.50;;;9.10;99.90;;;;;;5053070;28;20548;-61
2023/10/15 02:23:19;;;;;;;0.75;0.50;;;9.20;99.90;;;;;;5053248;28;20279;-62
2023/10/15 02:25:58;;;;;;;0.52;0.52;;;9.30;99.90;;;;;;5052702;28;20193;-62
2023/10/15 02:28:25;;;;;;;0.40;0.40;;;9.20;99.90;;;;;;5052003;28;20170;-61
2023/10/15 02:33:38;;;;;;;0.55;0.40;;;9.20;99.90;;;;;;5052783;28;20573;-61
2023/10/15 02:36:08;;;;;;;1.15;0.98;;;9.30;99.90;;;;;;5052654;28;20552;-61
2023/10/15 02:38:39;;;;;;;0.40;0.40;;;9.30;99.90;;;;;;5052548;28;20662;-61
2023/10/15 02:41:06;;;;;;;0.50;0.50;;;9.20;99.90;;;;;;5052752;28;20703;-61
2023/10/15 02:43:33;;;;;;;0.40;0.40;;;9.10;99.90;;;;;;5052782;28;20267;-62
2023/10/15 02:46:00;;;;;;;0.70;0.70;;;9.10;99.90;;;;;;5052587;28;20185;-61
2023/10/15 02:48:26;;;;;;;0.50;0.47;;;9.10;99.90;;;;;;5052482;28;20687;-61
2023/10/15 02:51:07;;;;;;;3.22;3.13;;;9.20;99.90;;;;;;5052251;28;20190;-61
2023/10/15 02:53:34;;;;;;;0.47;0.47;;;9.30;99.90;;;;;;5052316;28;20659;-62
2023/10/15 02:56:00;;;;;;;1.33;1.23;;;9.30;99.90;;;;;;5051688;28;20186;-61
2023/10/15 02:58:30;;;;;;;0.60;0.50;;;9.30;99.90;;;;;;5052684;28;20174;-61
2023/10/15 03:01:06;;;;;;;0.40;0.40;;;9.30;99.90;;;;;;5052398;28;20162;-61
2023/10/15 03:03:34;;;;;;;0.75;0.75;;;9.30;99.90;;;;;;5052219;28;20239;-62
2023/10/15 03:06:01;;;;;;;0.82;0.82;;;9.40;99.90;;;;;;5052386;28;20190;-61
2023/10/15 03:08:32;;;;;;;1.40;0.95;;;9.40;99.90;;;;;;5052240;28;20186;-61
2023/10/15 03:11:12;;;;;;;0.40;0.40;;;9.50;99.90;;;;;;5052417;28;20204;-61
2023/10/15 03:13:49;;;;;;;0.40;0.40;;;9.50;99.90;;;;;;5051982;28;20205;-61
2023/10/15 03:16:22;;;;;;;0.40;0.40;;;9.50;99.90;;;;;;5051998;28;20543;-61
2023/10/15 03:18:49;;;;;;;0.52;0.52;;;9.40;99.90;;;;;;5052009;28;20228;-62
2023/10/15 03:21:25;;;;;;;0.60;0.60;;;9.40;99.90;;;;;;5051961;28;20256;-61
2023/10/15 03:23:55;;;;;;;3.20;1.67;;;9.40;99.90;;;;;;5051832;28;20193;-61
2023/10/15 03:26:22;;;;;;;0.88;0.45;;;9.30;99.90;;;;;;5051685;28;20170;-61
2023/10/15 03:28:51;;;;;;;0.63;0.63;;;9.50;99.90;;;;;;5051520;28;20182;-62
2023/10/15 03:31:25;;;;;;;0.47;0.47;;;9.60;99.90;;;;;;5051685;28;20226;-61
2023/10/15 03:40:10;;;;;;;0.40;0.40;;;9.70;99.90;;;;;;5051139;28;20177;-62
2023/10/15 03:42:09;;;;;;;1.65;1.35;;;9.70;99.90;;;;;;5054206;28;20186;-62
2023/10/15 03:44:45;;;;;;;1.15;0.93;;;9.60;99.90;;;;;;5051607;28;20673;-62
2023/10/15 03:47:15;;;;;;;0.40;0.40;;;9.50;99.90;;;;;;5051327;28;20182;-61
2023/10/15 03:49:44;;;;;;;0.60;0.60;;;9.50;99.90;;;;;;5051314;28;20197;-61
2023/10/15 03:52:14;;;;;;;0.50;0.50;;;9.50;99.90;;;;;;5051343;28;20210;-62
2023/10/15 03:54:42;;;;;;;1.15;1.05;;;9.50;99.90;;;;;;5051421;28;20656;-62
2023/10/15 03:57:08;;;;;;;0.30;0.30;;;9.50;99.90;;;;;;5051237;28;20174;-62
2023/10/15 03:59:42;;;;;;;0.60;0.50;;;9.50;99.90;;;;;;5051443;28;20174;-61
2023/10/15 04:02:11;;;;;;;0.50;0.50;;;9.60;99.90;;;;;;5051336;28;20945;-62
2023/10/15 04:04:38;;;;;;;0.65;0.65;;;9.60;99.90;;;;;;5051442;28;20214;-61
2023/10/15 04:07:12;;;;;;;0.55;0.55;;;9.60;99.90;;;;;;5051094;28;20253;-62
2023/10/15 04:09:38;;;;;;;0.88;0.88;;;9.60;99.90;;;;;;5051305;28;20675;-61
2023/10/15 04:12:06;;;;;;;0.50;0.50;;;9.60;99.90;;;;;;5051084;28;20229;-61
2023/10/15 04:14:35;;;;;;;1.15;1.05;;;9.50;99.90;;;;;;5051114;28;20174;-61
2023/10/15 04:17:01;;;;;;;0.68;0.63;;;9.40;99.90;;;;;;5051195;28;20216;-62
2023/10/15 04:19:29;;;;;;;1.42;0.95;;;9.40;99.90;;;;;;5051451;28;20587;-62
2023/10/15 04:22:14;;;;;;;0.77;0.77;;;9.40;99.90;;;;;;5051220;28;20177;-62
2023/10/15 04:24:49;;;;;;;0.70;0.70;;;9.40;99.90;;;;;;5051237;28;20686;-61
2023/10/15 04:27:16;;;;;;;0.82;0.82;;;9.50;99.90;;;;;;5050812;28;20668;-61
2023/10/15 04:29:54;;;;;;;1.10;1.10;;;9.60;99.90;;;;;;5051121;28;20216;-61
2023/10/15 04:32:45;;;;;;;25.10;1.38;;;9.60;99.90;;;;;;5051076;28;20213;-61
2023/10/15 04:35:18;;;;;;;1.35;1.25;;;9.70;99.90;;;;;;5051057;28;20204;-61
2023/10/15 04:37:48;;;;;;;1.15;1.02;;;9.80;99.90;;;;;;5050700;28;20557;-61
2023/10/15 04:40:17;;;;;;;0.73;0.60;;;9.70;99.90;;;;;;5051030;28;20583;-61
2023/10/15 04:42:51;;;;;;;1.58;0.80;;;9.80;99.90;;;;;;5050799;28;20237;-62
2023/10/15 04:45:21;;;;;;;1.08;0.82;;;9.80;99.90;;;;;;5051037;28;20170;-61
2023/10/15 04:47:51;;;;;;;0.40;0.40;;;9.70;99.90;;;;;;5050547;28;20186;-62
2023/10/15 04:50:17;;;;;;;1.15;1.15;;;9.70;99.90;;;;;;5052646;28;20190;-61
2023/10/15 04:52:43;;;;;;;0.70;0.70;;;9.70;99.90;;;;;;5054553;28;20695;-62
2023/10/15 04:55:13;;;;;;;1.40;1.00;;;9.70;99.90;;;;;;5054657;28;20867;-61
2023/10/15 04:57:39;;;;;;;0.80;0.80;;;9.70;99.90;;;;;;5054324;28;20182;-62
2023/10/15 05:00:07;;;;;;;3.13;0.70;;;9.80;99.90;;;;;;5053370;28;20253;-61
2023/10/15 05:02:33;;;;;;;0.70;0.70;;;9.70;99.90;;;;;;5054313;28;20934;-61
2023/10/15 05:05:00;;;;;;;0.90;0.90;;;9.60;99.90;;;;;;5054491;28;20194;-61
2023/10/15 05:07:29;;;;;;;0.63;0.63;;;9.60;99.90;;;;;;5054172;28;20185;-62
2023/10/15 05:09:55;;;;;;;1.08;0.90;;;9.70;99.90;;;;;;5054482;28;20636;-61
2023/10/15 05:12:21;;;;;;;6.80;0.80;;;9.80;99.90;;;;;;5054218;28;20234;-61
2023/10/15 05:14:49;;;;;;;0.40;0.40;;;9.80;99.90;;;;;;5054368;28;20173;-61
2023/10/15 05:17:15;;;;;;;0.70;0.70;;;9.90;99.90;;;;;;5054000;28;20174;-61
2023/10/15 05:19:45;;;;;;;1.13;1.05;;;9.90;99.90;;;;;;5054391;28;20178;-61
2023/10/15 05:22:11;;;;;;;0.60;0.60;;;9.90;99.90;;;;;;5054160;28;20289;-62
2023/10/15 05:24:37;;;;;;;3.13;1.77;;;9.80;99.90;;;;;;5054188;28;20249;-61
2023/10/15 05:27:02;;;;;;;0.80;0.70;;;9.80;99.90;;;;;;5053773;28;20190;-61
2023/10/15 05:29:31;;;;;;;0.70;0.70;;;9.70;99.90;;;;;;5054550;28;20746;-61
2023/10/15 05:31:57;;;;;;;0.60;0.57;;;9.70;99.90;;;;;;5054028;28;20627;-61
2023/10/15 05:34:22;;;;;;;0.60;0.60;;;9.80;99.90;;;;;;5054017;28;20189;-61
2023/10/15 05:36:48;;;;;;;2.50;0.60;;;9.90;99.90;;;;;;5053632;28;20405;-61
2023/10/15 05:39:15;;;;;;;0.73;0.73;;;9.90;99.90;;;;;;5055100;28;20170;-61
2023/10/15 05:41:42;;;;;;;0.95;0.95;;;9.90;99.90;;;;;;5053827;28;20266;-62
2023/10/15 05:44:08;;;;;;;13.57;2.25;;;10.00;99.90;;;;;;5053599;28;20202;-62
2023/10/15 05:46:33;;;;;;;0.93;0.93;;;10.00;99.90;;;;;;5053546;28;20256;-61
2023/10/15 05:48:59;;;;;;;0.70;0.63;;;9.90;99.90;;;;;;5053645;28;20170;-62
2023/10/15 05:51:27;;;;;;;1.23;1.10;;;9.80;99.90;;;;;;5053468;28;20849;-61
2023/10/15 05:53:53;;;;;;;1.13;1.13;;;9.70;99.90;;;;;;5053652;28;20190;-62
2023/10/15 05:56:21;;;;;;;0.40;0.40;;;9.70;99.90;;;;;;5053775;28;20206;-60
2023/10/15 05:58:47;;;;;;;1.05;1.05;;;9.70;99.90;;;;;;5053296;28;20180;-61
2023/10/15 06:01:15;;;;;;;1.05;1.05;;;9.60;99.90;;;;;;5053049;28;20184;-60
2023/10/15 06:03:41;;;;;;;0.77;0.77;;;9.60;99.90;;;;;;5053654;28;20668;-60
2023/10/15 06:06:06;;;;;;;0.40;0.40;;;9.60;99.90;;;;;;5053296;28;20227;-60
2023/10/15 06:08:33;;;;;;;4.90;1.33;;;9.50;99.90;;;;;;5053161;28;20319;-60
2023/10/15 06:10:58;;;;;;;1.27;1.27;;;9.60;99.90;;;;;;5053214;28;20182;-60
2023/10/15 06:13:24;;;;;;;0.50;0.50;;;9.60;99.90;;;;;;5053275;28;20194;-61
2023/10/15 06:15:52;;;;;;;0.80;0.80;;;9.70;99.90;;;;;;5053380;28;20166;-62
2023/10/15 06:18:18;;;;;;;0.60;0.60;;;9.60;99.90;;;;;;5052914;28;20576;-62
2023/10/15 06:20:47;;;;;;;0.47;0.43;;;9.60;99.90;;;;;;5052994;28;20201;-62
2023/10/15 06:23:13;;;;;;;0.70;0.70;;;9.60;99.90;;;;;;5053484;28;20284;-61
2023/10/15 06:25:39;;;;;;;0.70;0.70;;;9.60;99.90;;;;;;5052858;28;20182;-61
2023/10/15 06:28:06;;;;;;;1.08;1.00;;;9.60;99.90;;;;;;5052644;28;20176;-62
2023/10/15 06:30:31;;;;;;;0.75;0.68;;;9.70;99.90;;;;;;5052819;28;20250;-62
2023/10/15 06:32:57;;;;;;;0.70;0.50;;;9.70;99.90;;;;;;5052727;28;20304;-61
2023/10/15 06:35:25;;;;;;;1.80;0.70;;;9.70;99.90;;;;;;5053133;28;20170;-61
2023/10/15 06:37:56;;;;;;;1.20;0.68;;;9.70;99.90;;;;;;5052509;28;20170;-62
2023/10/15 06:40:21;;;;;;;0.80;0.80;;;9.80;99.90;;;;;;5052621;28;20166;-62
2023/10/15 06:42:47;;;;;;;0.73;0.57;;;9.90;99.90;;;;;;5052504;28;20197;-61
2023/10/15 06:45:19;;;;;;;0.40;0.40;;;10.00;99.90;;;;;;5052617;28;20917;-62
2023/10/15 06:47:47;;;;;;;0.57;0.57;;;10.10;99.90;;;;;;5052375;28;20178;-61
2023/10/15 06:50:14;;;;;;;0.90;0.90;;;10.20;99.90;;;;;;5052569;28;20553;-62
2023/10/15 06:52:41;;;;;;;1.15;1.15;;;10.30;99.90;;;;;;5052326;28;20217;-61
2023/10/15 06:55:07;;;;;;;1.27;1.17;;;10.30;99.90;;;;;;5052343;28;20191;-61
2023/10/15 06:57:34;;;;;;;1.52;1.20;;;10.30;99.90;;;;;;5052300;28;20170;-62
2023/10/15 07:00:00;;;;;;;0.70;0.70;;;10.30;99.90;;;;;;5053369;28;20260;-61
2023/10/15 07:02:28;;;;;;;4.45;1.63;;;10.30;99.90;;;;;;5052551;28;20668;-61
2023/10/15 07:04:56;;;;;;;1.02;0.85;;;10.30;99.90;;;;;;5052122;28;20182;-61
2023/10/15 07:07:22;;;;;;;3.15;1.25;;;10.40;99.90;;;;;;5051798;28;20174;-62
2023/10/15 07:09:48;;;;;;;0.70;0.70;;;10.50;99.90;;;;;;5052409;28;20190;-61
2023/10/15 07:12:14;;;;;;;0.80;0.80;;;10.60;99.90;;;;;;5051184;28;20664;-61
2023/10/15 07:14:39;;;;;;;0.40;0.40;;;10.70;99.90;;;;;;5052019;28;20177;-62
2023/10/15 07:17:05;;;;;;;2.83;0.63;;;10.80;99.90;;;;;;5051716;28;20193;-62
2023/10/15 07:19:31;;;;;;;1.27;1.20;;;10.80;99.90;;;;;;5051967;28;20549;-62
2023/10/15 07:21:56;;;;;;;0.70;0.70;;;10.90;99.30;;;;;;5051735;28;20185;-61
2023/10/15 07:24:23;;;;;;;0.50;0.50;;;11.10;99.10;;;;;;5051857;28;20212;-62
2023/10/15 07:26:48;;;;;;;0.80;0.60;;;11.20;98.40;;;;;;5051519;28;20663;-62
2023/10/15 07:29:14;;;;;;;0.50;0.50;;;11.20;98.70;;;;;;5051801;28;20182;-61
2023/10/15 07:31:39;;;;;;;0.67;0.67;;;11.20;98.50;;;;;;5051726;28;20217;-62
2023/10/15 07:34:05;;;;;;;1.20;1.10;;;11.30;98.40;;;;;;5051656;28;20587;-62
2023/10/15 07:36:32;;;;;;;0.90;0.83;;;11.40;98.30;;;;;;5051373;28;20173;-62
2023/10/15 07:38:58;;;;;;;1.33;0.87;;;11.60;98.10;;;;;;5051683;28;20461;-62
2023/10/15 07:41:23;;;;;;;0.70;0.70;;;11.60;98.40;;;;;;5051570;28;20996;-61
2023/10/15 07:43:49;;;;;;;1.07;0.97;;;11.60;98.20;;;;;;5051461;28;20201;-62
2023/10/15 07:46:14;;;;;;;1.37;0.60;;;11.50;98.10;;;;;;5051470;28;20262;-62
2023/10/15 07:48:40;;;;;;;2.03;1.27;;;11.50;97.60;;;;;;5051337;28;20638;-61
2023/10/15 07:51:06;;;;;;;0.70;0.70;;;11.70;98.30;;;;;;5051135;28;20661;-62
2023/10/15 07:53:32;;;;;;;1.23;0.80;;;11.60;98.00;;;;;;5051545;28;20504;-62
2023/10/15 07:55:57;;;;;;;1.63;0.80;;;11.70;97.40;;;;;;5051233;28;20261;-62
2023/10/15 07:58:23;;;;;;;2.00;0.87;;;12.40;97.50;;;;;;5051247;28;20223;-62
2023/10/15 08:00:50;;;;;;;0.60;0.60;;;13.10;96.50;;;;;;5051331;28;20224;-62
2023/10/15 08:03:16;;;;;;;2.83;0.97;;;14.00;95.00;;;;;;5051188;28;20510;-62
2023/10/15 08:05:44;;;;;;;0.70;0.70;;;14.70;92.60;;;;;;5051201;28;20933;-62
2023/10/15 08:08:11;;;;;;;2.00;0.70;;;14.50;91.20;;;;;;5051443;28;20314;-62
2023/10/15 08:10:37;;;;;;;0.70;0.70;;;14.30;91.30;;;;;;5051259;28;20408;-62
2023/10/15 08:13:03;;;;;;;0.40;0.40;;;14.40;91.60;;;;;;5051094;28;20457;-62
2023/10/15 08:15:29;;;;;;;1.50;0.63;;;14.20;91.10;;;;;;5051244;28;20593;-62
2023/10/15 08:17:58;;;;;;;0.60;0.60;;;13.70;91.10;;;;;;5050931;28;20511;-62
2023/10/15 08:20:23;;;;;;;0.90;0.73;;;13.40;91.40;;;;;;5051175;28;20448;-62
2023/10/15 08:22:50;;;;;;;1.90;1.17;;;13.10;91.20;;;;;;5052311;28;20519;-62
2023/10/15 08:25:21;;;;;;;0.60;0.60;;;12.80;91.50;;;;;;5054488;28;20732;-62
2023/10/15 08:27:47;;;;;;;0.40;0.40;;;12.80;92.60;;;;;;5055309;28;20415;-62
2023/10/15 08:30:14;;;;;;;1.23;0.90;;;12.70;92.80;;;;;;5055134;28;21050;-62
2023/10/15 08:32:44;;;;;;;1.03;0.47;;;12.70;91.90;;;;;;5054847;28;20455;-62
2023/10/15 08:35:10;;;;;;;0.40;0.40;;;12.60;91.20;;;;;;5054915;28;20416;-62
2023/10/15 08:37:45;;;;;;;1.20;1.10;;;12.40;93.00;;;;;;5054728;28;20405;-61
2023/10/15 08:40:17;;;;;;;0.50;0.50;;;12.40;92.60;;;;;;5055142;28;20417;-62
2023/10/15 08:42:59;;;;;;;4.33;0.90;;;12.30;93.40;;;;;;5054856;28;20427;-62
2023/10/15 08:45:26;;;;;;;0.70;0.70;;;12.20;94.40;;;;;;5054799;28;20995;-62
2023/10/15 08:47:53;;;;;;;0.50;0.50;;;12.10;94.50;;;;;;5054475;28;20451;-62
2023/10/15 08:50:20;;;;;;;2.30;1.33;;;12.20;92.80;;;;;;5054603;28;20475;-62
2023/10/15 08:52:46;;;;;;;3.50;0.67;;;12.30;92.90;;;;;;5054697;28;20977;-61
2023/10/15 08:55:14;;;;;;;0.83;0.83;;;12.10;93.00;;;;;;5054719;28;20505;-62
2023/10/15 08:57:41;;;;;;;0.50;0.50;;;12.10;92.70;;;;;;5054259;28;20438;-62
2023/10/15 09:00:25;;;;;;;0.60;0.60;;;12.10;92.00;;;;;;5054477;28;20412;-61
2023/10/15 09:02:56;;;;;;;0.40;0.40;;;12.10;93.40;;;;;;5054442;28;20428;-61
2023/10/15 09:05:24;;;;;;;0.40;0.40;;;11.90;92.50;;;;;;5054616;28;20447;-61
2023/10/15 09:07:54;;;;;;;0.90;0.60;;;11.80;93.10;;;;;;5054097;28;20404;-62
2023/10/15 09:10:20;;;;;;;4.53;0.73;;;11.60;94.10;;;;;;5054334;28;20477;-61
2023/10/15 09:12:45;;;;;;;0.70;0.63;;;11.50;93.60;;;;;;5071314;22;20489;-58
2023/10/15 09:15:17;;;;;;;0.70;0.70;;;11.50;93.80;;;;;;5034590;28;20182;-59
2023/10/15 09:17:55;;;;;;;1.23;1.07;;;11.40;93.70;;;;;;5034178;28;20174;-60
2023/10/15 09:20:32;;;;;;;0.60;0.40;;;11.40;93.80;;;;;;5034703;28;20829;-59
2023/10/15 09:23:00;;;;;;;0.60;0.60;;;11.50;93.20;;;;;;5034489;28;20451;-58
2023/10/15 09:25:27;;;;;;;0.67;0.57;;;11.70;93.30;;;;;;5034702;28;20765;-59
2023/10/15 09:27:54;;;;;;;0.90;0.90;;;12.00;93.20;;;;;;5034367;28;20404;-60
2023/10/15 09:30:23;;;;;;;0.60;0.57;;;12.60;92.50;;;;;;5034377;28;20561;-60
2023/10/15 09:32:49;;;;;;;0.40;0.40;;;13.40;91.10;;;;;;5034116;28;20457;-60
2023/10/15 09:35:16;;;;;;;0.47;0.47;;;14.10;88.90;;;;;;5033386;28;20419;-60
2023/10/15 09:37:42;;;;;;;0.60;0.60;;;15.10;86.90;;;;;;5033746;28;20520;-60
2023/10/15 09:40:09;;;;;;;0.93;0.53;;;15.90;79.70;;;;;;5034243;28;20827;-60
2023/10/15 09:42:38;;;;;;;1.00;0.60;;;16.70;79.00;;;;;;5034033;28;20191;-60
2023/10/15 09:45:05;;;;;;;0.50;0.50;;;17.10;76.50;;;;;;5034053;28;20409;-60
2023/10/15 09:47:33;;;;;;;3.27;0.50;;;17.80;74.00;;;;;;5034100;28;20497;-60
2023/10/15 09:50:01;;;;;;;1.67;0.70;;;18.10;74.30;;;;;;5034045;28;20916;-59
2023/10/15 09:52:29;;;;;;;0.43;0.43;;;18.50;70.10;;;;;;5033709;28;20442;-59
2023/10/15 09:54:57;;;;;;;0.40;0.40;;;19.20;67.10;;;;;;5033794;28;20416;-60
2023/10/15 09:57:25;;;;;;;0.70;0.70;;;20.20;63.90;;;;;;5033516;28;20911;-60
2023/10/15 09:59:53;;;;;;;1.07;0.97;;;20.30;61.00;;;;;;5033519;28;20409;-60
2023/10/15 10:02:32;;;;;;;1.33;0.80;;;20.50;59.80;;;;;;5033783;28;20423;-60
2023/10/15 10:05:44;;;;;;;0.90;0.60;;;19.50;57.00;;;;;;5033546;28;20554;-60
2023/10/15 10:08:30;;;;;;;0.40;0.40;;;17.40;60.30;;;;;;5033574;28;20405;-60
2023/10/15 10:11:29;;;;;;;1.07;0.50;;;16.40;66.20;;;;;;5033360;28;20441;-60
2023/10/15 10:14:38;;;;;;;0.60;0.50;;;16.20;69.50;;;;;;5033401;28;20477;-60
2023/10/15 10:17:06;;;;;;;0.40;0.40;;;15.60;65.80;;;;;;5030709;28;20428;-60
2023/10/15 10:19:32;;;;;;;0.70;0.70;;;15.40;70.30;;;;;;5033458;28;20401;-60
2023/10/15 10:21:58;;;;;;;4.80;0.50;;;15.00;69.20;;;;;;5033541;28;20928;-59
2023/10/15 10:24:39;;;;;;;0.60;0.60;;;14.60;69.60;;;;;;5033301;28;20436;-60
2023/10/15 10:27:16;;;;;;;0.40;0.40;;;14.30;70.70;;;;;;5033021;28;20950;-60
2023/10/15 10:29:43;;;;;;;0.77;0.77;;;14.40;72.50;;;;;;5033133;28;20413;-59
2023/10/15 10:32:14;;;;;;;0.50;0.50;;;14.40;71.20;;;;;;5033069;28;20485;-60
2023/10/15 10:34:41;;;;;;;3.23;0.63;;;14.80;70.30;;;;;;5033063;28;20866;-60
2023/10/15 10:37:30;;;;;;;0.60;0.60;;;15.60;69.40;;;;;;5032666;28;20405;-60
2023/10/15 10:39:58;;;;;;;0.40;0.40;;;16.00;67.20;;;;;;5033404;28;20408;-60
2023/10/15 10:42:26;;;;;;;0.40;0.40;;;16.00;65.90;;;;;;5032724;28;20413;-59
2023/10/15 10:44:56;;;;;;;1.23;0.50;;;15.60;65.50;;;;;;5033001;28;20413;-60
2023/10/15 10:47:24;;;;;;;0.53;0.53;;;15.50;66.60;;;;;;5032565;28;20478;-60
2023/10/15 10:49:55;;;;;;;0.77;0.77;;;15.40;69.00;;;;;;5032871;28;20468;-60
2023/10/15 10:52:36;;;;;;;0.60;0.43;;;15.30;68.10;;;;;;5032636;28;20798;-60
2023/10/15 10:55:33;;;;;;;0.77;0.77;;;15.20;69.40;;;;;;5032962;28;20767;-59
2023/10/15 10:58:07;;;;;;;1.13;0.40;;;15.00;70.90;;;;;;5032565;28;20928;-60
2023/10/15 11:00:33;;;;;;;0.60;0.60;;;14.60;68.50;;;;;;5032657;28;20394;-60
2023/10/15 11:03:01;;;;;;;0.90;0.57;;;14.40;70.50;;;;;;5032474;28;20423;-60
2023/10/15 11:05:29;;;;;;;0.60;0.50;;;14.20;74.40;;;;;;5032478;28;20407;-60
2023/10/15 11:07:55;;;;;;;0.50;0.50;;;13.80;72.00;;;;;;5032365;28;20424;-60
2023/10/15 11:10:20;;;;;;;5.20;1.43;;;13.40;71.60;;;;;;5032321;28;20413;-60
2023/10/15 11:12:46;;;;;;;0.50;0.50;;;13.10;75.70;;;;;;5032011;28;20210;-59
2023/10/15 11:15:14;;;;;;;0.40;0.40;;;12.90;76.90;;;;;;5032166;28;20343;-60
2023/10/15 11:17:56;;;;;;;0.40;0.40;;;12.80;76.90;;;;;;5031771;28;20444;-59
2023/10/15 11:20:27;;;;;;;0.40;0.40;;;13.00;75.50;;;;;;5032279;28;20405;-60
2023/10/15 11:22:53;;;;;;;0.43;0.43;;;13.10;77.90;;;;;;5032459;28;20455;-60
2023/10/15 11:25:20;;;;;;;1.77;1.67;;;13.00;76.30;;;;;;5032168;28;20503;-60
2023/10/15 11:27:48;;;;;;;0.40;0.40;;;13.10;76.70;;;;;;5031811;28;20409;-60
2023/10/15 11:30:15;;;;;;;0.97;0.60;;;12.90;75.40;;;;;;5032055;28;20409;-60
2023/10/15 11:32:40;;;;;;;1.43;1.03;;;12.90;78.80;;;;;;5031935;28;20998;-60
2023/10/15 11:35:07;;;;;;;0.90;0.87;;;12.90;79.20;;;;;;5031958;28;20563;-59
2023/10/15 11:37:35;;;;;;;0.40;0.40;;;13.10;79.00;;;;;;5031815;28;20254;-60
2023/10/15 11:40:00;;;;;;;1.50;0.50;;;13.00;76.20;;;;;;5031852;28;20401;-60
2023/10/15 11:42:28;;;;;;;0.40;0.40;;;12.70;75.20;;;;;;5031784;28;20914;-60
2023/10/15 11:44:56;;;;;;;0.50;0.50;;;12.70;76.50;;;;;;5031582;28;20802;-60
2023/10/15 11:47:24;;;;;;;0.40;0.40;;;12.70;75.40;;;;;;5031758;28;20822;-60
2023/10/15 11:49:50;;;;;;;0.87;0.50;;;12.90;74.40;;;;;;5031776;28;20421;-59
2023/10/15 11:52:22;;;;;;;0.43;0.40;;;13.20;74.50;;;;;;5031585;28;20954;-59
2023/10/15 11:54:50;;;;;;;0.50;0.50;;;13.60;74.80;;;;;;5031717;28;20423;-59
2023/10/15 11:57:23;;;;;;;0.40;0.40;;;13.90;72.50;;;;;;5031082;28;20409;-59
2023/10/15 11:59:49;;;;;;;0.50;0.50;;;14.10;73.70;;;;;;5031317;28;20405;-60
2023/10/15 12:02:15;;;;;;;0.77;0.77;;;14.20;73.80;;;;;;5031563;28;20421;-60
2023/10/15 12:04:40;;;;;;;0.60;0.60;;;14.30;72.40;;;;;;5031359;28;20514;-59
2023/10/15 12:07:15;;;;;;;0.60;0.60;;;13.80;70.10;;;;;;5031215;28;20183;-59
2023/10/15 12:09:44;;;;;;;3.13;0.43;;;13.50;73.90;;;;;;5031570;28;20620;-60
2023/10/15 12:12:11;;;;;;;0.63;0.50;;;13.40;70.80;;;;;;5031688;28;20531;-60
2023/10/15 12:14:37;;;;;;;0.53;0.53;;;13.40;71.60;;;;;;5031264;28;20448;-60
2023/10/15 12:17:04;;;;;;;0.60;0.50;;;13.30;73.90;;;;;;5031151;28;20840;-59
2023/10/15 12:19:30;;;;;;;0.60;0.40;;;13.40;73.00;;;;;;5031695;28;20456;-60
2023/10/15 12:21:58;;;;;;;0.40;0.40;;;13.40;70.60;;;;;;5031513;28;20437;-60
2023/10/15 12:24:25;;;;;;;1.07;0.83;;;13.20;70.70;;;;;;5031904;28;20519;-60
2023/10/15 12:26:50;;;;;;;0.80;0.50;;;12.70;72.80;;;;;;5030991;28;20480;-59
2023/10/15 12:29:17;;;;;;;0.70;0.60;;;12.80;73.40;;;;;;5031521;28;20405;-60
2023/10/15 12:31:43;;;;;;;0.50;0.50;;;12.90;74.10;;;;;;5031460;28;20288;-58
2023/10/15 12:34:11;;;;;;;1.20;0.53;;;12.90;78.70;;;;;;5031414;28;20824;-60
2023/10/15 12:36:38;;;;;;;0.63;0.63;;;12.80;77.80;;;;;;5031226;28;20408;-60
2023/10/15 12:39:05;;;;;;;0.43;0.43;;;12.60;77.80;;;;;;5031121;28;20471;-60
2023/10/15 12:41:31;;;;;;;2.33;0.40;;;12.60;80.70;;;;;;5031379;28;20420;-59
2023/10/15 12:44:00;;;;;;;0.53;0.53;;;12.80;82.00;;;;;;5031149;28;20431;-59
2023/10/15 12:46:27;;;;;;;0.67;0.40;;;12.90;82.40;;;;;;5031139;28;20408;-60
2023/10/15 12:48:53;;;;;;;0.40;0.40;;;12.90;80.80;;;;;;5031069;28;21038;-60
2023/10/15 12:51:19;;;;;;;0.40;0.40;;;12.60;77.10;;;;;;5030976;28;20494;-59
2023/10/15 12:53:46;;;;;;;0.53;0.53;;;12.30;80.10;;;;;;5031178;28;20779;-58
2023/10/15 12:56:12;;;;;;;0.40;0.40;;;12.00;81.70;;;;;;5031090;28;20947;-60
2023/10/15 12:58:38;;;;;;;2.97;0.80;;;12.00;82.10;;;;;;5030893;28;20513;-60
2023/10/15 13:01:05;;;;;;;4.23;1.87;;;11.90;78.70;;;;;;5031078;28;20163;-60
2023/10/15 13:03:32;;;;;;;0.60;0.60;;;11.80;82.30;;;;;;5030954;28;20195;-59
2023/10/15 13:05:58;;;;;;;1.33;0.40;;;12.00;80.00;;;;;;5030836;28;20781;-60
2023/10/15 13:08:23;;;;;;;0.47;0.47;;;12.20;82.30;;;;;;5030693;28;20400;-60
2023/10/15 13:10:49;;;;;;;0.50;0.50;;;12.50;79.50;;;;;;5031790;28;20194;-59
2023/10/15 13:13:16;;;;;;;0.50;0.50;;;12.50;76.10;;;;;;5034313;28;20730;-59
2023/10/15 13:15:41;;;;;;;1.27;1.07;;;12.40;74.40;;;;;;5034413;28;20415;-60
2023/10/15 13:18:07;;;;;;;0.60;0.57;;;12.30;76.70;;;;;;5034189;28;20806;-58
2023/10/15 13:20:33;;;;;;;0.47;0.47;;;12.20;79.20;;;;;;5034361;28;20258;-60
2023/10/15 13:22:58;;;;;;;0.40;0.40;;;12.20;81.30;;;;;;5034167;28;20584;-60